sensor_id;sensor_type;location;lat;lon;timestamp;pressure;altitude;pressure_sealevel;temperature
16956;BMP180;8594;52.052;8.354;2022-12-10T00:02:18;99745.00;;;3.80
16956;BMP180;8594;52.052;8.354;2022-12-10T00:04:45;99754.00;;;3.80
16956;BMP180;8594;52.052;8.354;2022-12-10T00:07:12;99757.00;;;3.70
16956;BMP180;8594;52.052;8.354;2022-12-10T00:09:39;99748.00;;;3.70
16956;BMP180;8594;52.052;8.354;2022-12-10T00:12:06;99754.00;;;3.90
16956;BMP180;8594;52.052;8.354;2022-12-10T00:14:33;99757.00;;;3.90
16956;BMP180;8594;52.052;8.354;2022-12-10T00:17:01;99761.00;;;3.80
16956;BMP180;8594;52.052;8.354;2022-12-10T00:19:28;99764.00;;;3.70
16956;BMP180;8594;52.052;8.354;2022-12-10T00:21:55;99760.00;;;3.60
16956;BMP180;8594;52.052;8.354;2022-12-10T00:24:22;99759.00;;;3.40
16956;BMP180;8594;52.052;8.354;2022-12-10T00:26:49;99762.00;;;3.60
16956;BMP180;8594;52.052;8.354;2022-12-10T00:29:16;99767.00;;;3.80
16956;BMP180;8594;52.052;8.354;2022-12-10T00:31:43;99755.00;;;3.90
16956;BMP180;8594;52.052;8.354;2022-12-10T00:34:12;99760.00;;;3.90
16956;BMP180;8594;52.052;8.354;2022-12-10T00:36:41;99771.00;;;3.90
16956;BMP180;8594;52.052;8.354;2022-12-10T00:39:11;99775.00;;;3.70
16956;BMP180;8594;52.052;8.354;2022-12-10T00:41:39;99761.00;;;3.70
16956;BMP180;8594;52.052;8.354;2022-12-10T00:44:06;99774.00;;;3.60
16956;BMP180;8594;52.052;8.354;2022-12-10T00:46:33;99763.00;;;3.70
16956;BMP180;8594;52.052;8.354;2022-12-10T00:49:00;99770.00;;;3.80
16956;BMP180;8594;52.052;8.354;2022-12-10T00:51:29;99767.00;;;3.70
16956;BMP180;8594;52.052;8.354;2022-12-10T00:53:57;99774.00;;;3.70
16956;BMP180;8594;52.052;8.354;2022-12-10T00:56:28;99773.00;;;3.90
16956;BMP180;8594;52.052;8.354;2022-12-10T00:58:55;99765.00;;;3.90
16956;BMP180;8594;52.052;8.354;2022-12-10T01:01:26;99770.00;;;3.80
16956;BMP180;8594;52.052;8.354;2022-12-10T01:03:57;99768.00;;;3.90
16956;BMP180;8594;52.052;8.354;2022-12-10T01:06:29;99768.00;;;3.90
16956;BMP180;8594;52.052;8.354;2022-12-10T01:09:00;99771.00;;;3.70
16956;BMP180;8594;52.052;8.354;2022-12-10T01:11:31;99782.00;;;4.10
16956;BMP180;8594;52.052;8.354;2022-12-10T01:13:58;99777.00;;;3.90
16956;BMP180;8594;52.052;8.354;2022-12-10T01:16:26;99788.00;;;3.70
16956;BMP180;8594;52.052;8.354;2022-12-10T01:18:55;99785.00;;;4.00
16956;BMP180;8594;52.052;8.354;2022-12-10T01:21:25;99791.00;;;4.00
16956;BMP180;8594;52.052;8.354;2022-12-10T01:23:55;99795.00;;;3.90
16956;BMP180;8594;52.052;8.354;2022-12-10T01:26:28;99795.00;;;3.90
16956;BMP180;8594;52.052;8.354;2022-12-10T01:28:56;99795.00;;;3.70
16956;BMP180;8594;52.052;8.354;2022-12-10T01:31:25;99799.00;;;3.70
16956;BMP180;8594;52.052;8.354;2022-12-10T01:33:53;99794.00;;;4.30
16956;BMP180;8594;52.052;8.354;2022-12-10T01:36:24;99802.00;;;4.10
16956;BMP180;8594;52.052;8.354;2022-12-10T01:38:53;99805.00;;;4.00
16956;BMP180;8594;52.052;8.354;2022-12-10T01:41:24;99793.00;;;4.10
16956;BMP180;8594;52.052;8.354;2022-12-10T01:43:58;99796.00;;;3.90
16956;BMP180;8594;52.052;8.354;2022-12-10T01:46:29;99797.00;;;3.70
16956;BMP180;8594;52.052;8.354;2022-12-10T01:48:58;99800.00;;;3.80
16956;BMP180;8594;52.052;8.354;2022-12-10T01:51:30;99798.00;;;3.80
16956;BMP180;8594;52.052;8.354;2022-12-10T01:53:59;99803.00;;;3.90
16956;BMP180;8594;52.052;8.354;2022-12-10T01:56:35;99791.00;;;3.90
16956;BMP180;8594;52.052;8.354;2022-12-10T01:59:02;99800.00;;;3.90
16956;BMP180;8594;52.052;8.354;2022-12-10T02:01:49;99801.00;;;3.70
16956;BMP180;8594;52.052;8.354;2022-12-10T02:04:28;99810.00;;;3.60
16956;BMP180;8594;52.052;8.354;2022-12-10T02:07:00;99802.00;;;3.70
16956;BMP180;8594;52.052;8.354;2022-12-10T02:09:36;99807.00;;;3.60
16956;BMP180;8594;52.052;8.354;2022-12-10T02:12:12;99806.00;;;3.80
16956;BMP180;8594;52.052;8.354;2022-12-10T02:14:55;99798.00;;;3.90
16956;BMP180;8594;52.052;8.354;2022-12-10T02:17:28;99800.00;;;3.90
16956;BMP180;8594;52.052;8.354;2022-12-10T02:20:06;99803.00;;;3.80
16956;BMP180;8594;52.052;8.354;2022-12-10T02:22:38;99794.00;;;3.90
16956;BMP180;8594;52.052;8.354;2022-12-10T02:25:11;99800.00;;;3.90
16956;BMP180;8594;52.052;8.354;2022-12-10T02:27:48;99797.00;;;3.70
16956;BMP180;8594;52.052;8.354;2022-12-10T02:30:18;99794.00;;;3.50
16956;BMP180;8594;52.052;8.354;2022-12-10T02:32:49;99812.00;;;3.60
16956;BMP180;8594;52.052;8.354;2022-12-10T02:35:22;99804.00;;;4.10
16956;BMP180;8594;52.052;8.354;2022-12-10T02:37:55;99802.00;;;4.10
16956;BMP180;8594;52.052;8.354;2022-12-10T02:40:26;99805.00;;;3.80
16956;BMP180;8594;52.052;8.354;2022-12-10T02:42:55;99797.00;;;3.80
16956;BMP180;8594;52.052;8.354;2022-12-10T02:45:27;99800.00;;;3.90
16956;BMP180;8594;52.052;8.354;2022-12-10T02:47:58;99802.00;;;3.90
16956;BMP180;8594;52.052;8.354;2022-12-10T02:50:26;99808.00;;;4.10
16956;BMP180;8594;52.052;8.354;2022-12-10T02:52:53;99801.00;;;4.10
16956;BMP180;8594;52.052;8.354;2022-12-10T02:55:20;99799.00;;;3.80
16956;BMP180;8594;52.052;8.354;2022-12-10T02:58:04;99801.00;;;4.10
16956;BMP180;8594;52.052;8.354;2022-12-10T03:00:40;99798.00;;;4.10
16956;BMP180;8594;52.052;8.354;2022-12-10T03:03:28;99791.00;;;4.20
16956;BMP180;8594;52.052;8.354;2022-12-10T03:06:06;99796.00;;;4.20
16956;BMP180;8594;52.052;8.354;2022-12-10T03:08:46;99792.00;;;4.10
16956;BMP180;8594;52.052;8.354;2022-12-10T03:11:16;99795.00;;;4.10
16956;BMP180;8594;52.052;8.354;2022-12-10T03:13:54;99796.00;;;4.00
16956;BMP180;8594;52.052;8.354;2022-12-10T03:16:29;99805.00;;;4.00
16956;BMP180;8594;52.052;8.354;2022-12-10T03:19:04;99794.00;;;3.90
16956;BMP180;8594;52.052;8.354;2022-12-10T03:21:36;99794.00;;;3.90
16956;BMP180;8594;52.052;8.354;2022-12-10T03:24:05;99794.00;;;3.90
16956;BMP180;8594;52.052;8.354;2022-12-10T03:26:33;99796.00;;;3.90
16956;BMP180;8594;52.052;8.354;2022-12-10T03:29:05;99796.00;;;3.90
16956;BMP180;8594;52.052;8.354;2022-12-10T03:31:37;99805.00;;;4.10
16956;BMP180;8594;52.052;8.354;2022-12-10T03:34:07;99805.00;;;4.40
16956;BMP180;8594;52.052;8.354;2022-12-10T03:36:35;99809.00;;;4.30
16956;BMP180;8594;52.052;8.354;2022-12-10T03:39:03;99807.00;;;4.40
16956;BMP180;8594;52.052;8.354;2022-12-10T03:41:31;99803.00;;;4.20
16956;BMP180;8594;52.052;8.354;2022-12-10T03:43:59;99809.00;;;4.10
16956;BMP180;8594;52.052;8.354;2022-12-10T03:46:28;99803.00;;;4.20
16956;BMP180;8594;52.052;8.354;2022-12-10T03:48:59;99799.00;;;4.40
16956;BMP180;8594;52.052;8.354;2022-12-10T03:51:26;99796.00;;;4.30
16956;BMP180;8594;52.052;8.354;2022-12-10T03:53:54;99802.00;;;4.20
16956;BMP180;8594;52.052;8.354;2022-12-10T03:56:21;99800.00;;;4.20
16956;BMP180;8594;52.052;8.354;2022-12-10T03:58:49;99795.00;;;4.00
16956;BMP180;8594;52.052;8.354;2022-12-10T04:01:16;99790.00;;;4.30
16956;BMP180;8594;52.052;8.354;2022-12-10T04:03:44;99805.00;;;4.40
16956;BMP180;8594;52.052;8.354;2022-12-10T04:06:16;99809.00;;;4.40
16956;BMP180;8594;52.052;8.354;2022-12-10T04:08:43;99804.00;;;4.20
16956;BMP180;8594;52.052;8.354;2022-12-10T04:11:12;99805.00;;;4.40
16956;BMP180;8594;52.052;8.354;2022-12-10T04:13:39;99800.00;;;4.30
16956;BMP180;8594;52.052;8.354;2022-12-10T04:16:26;99800.00;;;4.30
16956;BMP180;8594;52.052;8.354;2022-12-10T04:18:54;99812.00;;;4.20
16956;BMP180;8594;52.052;8.354;2022-12-10T04:21:23;99807.00;;;4.30
16956;BMP180;8594;52.052;8.354;2022-12-10T04:24:10;99818.00;;;4.20
16956;BMP180;8594;52.052;8.354;2022-12-10T04:26:56;99823.00;;;4.40
16956;BMP180;8594;52.052;8.354;2022-12-10T04:29:26;99819.00;;;4.40
16956;BMP180;8594;52.052;8.354;2022-12-10T04:31:55;99822.00;;;4.40
16956;BMP180;8594;52.052;8.354;2022-12-10T04:34:23;99818.00;;;4.60
16956;BMP180;8594;52.052;8.354;2022-12-10T04:36:51;99817.00;;;4.50
16956;BMP180;8594;52.052;8.354;2022-12-10T04:39:19;99821.00;;;4.60
16956;BMP180;8594;52.052;8.354;2022-12-10T04:41:49;99822.00;;;4.50
16956;BMP180;8594;52.052;8.354;2022-12-10T04:44:16;99817.00;;;4.50
16956;BMP180;8594;52.052;8.354;2022-12-10T04:46:44;99827.00;;;4.40
16956;BMP180;8594;52.052;8.354;2022-12-10T04:49:11;99809.00;;;4.50
16956;BMP180;8594;52.052;8.354;2022-12-10T04:51:38;99808.00;;;4.70
16956;BMP180;8594;52.052;8.354;2022-12-10T04:54:07;99811.00;;;4.50
16956;BMP180;8594;52.052;8.354;2022-12-10T04:56:35;99811.00;;;4.30
16956;BMP180;8594;52.052;8.354;2022-12-10T04:59:04;99820.00;;;4.30
16956;BMP180;8594;52.052;8.354;2022-12-10T05:01:31;99828.00;;;4.30
16956;BMP180;8594;52.052;8.354;2022-12-10T05:03:59;99830.00;;;4.60
16956;BMP180;8594;52.052;8.354;2022-12-10T05:06:26;99835.00;;;4.60
16956;BMP180;8594;52.052;8.354;2022-12-10T05:08:54;99824.00;;;4.70
16956;BMP180;8594;52.052;8.354;2022-12-10T05:11:26;99824.00;;;4.70
16956;BMP180;8594;52.052;8.354;2022-12-10T05:13:55;99826.00;;;4.40
16956;BMP180;8594;52.052;8.354;2022-12-10T05:16:25;99826.00;;;4.50
16956;BMP180;8594;52.052;8.354;2022-12-10T05:18:53;99826.00;;;4.60
16956;BMP180;8594;52.052;8.354;2022-12-10T05:21:22;99823.00;;;4.40
16956;BMP180;8594;52.052;8.354;2022-12-10T05:23:51;99817.00;;;4.30
16956;BMP180;8594;52.052;8.354;2022-12-10T05:26:19;99826.00;;;4.50
16956;BMP180;8594;52.052;8.354;2022-12-10T05:28:51;99831.00;;;4.50
16956;BMP180;8594;52.052;8.354;2022-12-10T05:31:22;99829.00;;;4.40
16956;BMP180;8594;52.052;8.354;2022-12-10T05:33:51;99826.00;;;4.70
16956;BMP180;8594;52.052;8.354;2022-12-10T05:36:21;99826.00;;;4.50
16956;BMP180;8594;52.052;8.354;2022-12-10T05:38:49;99819.00;;;4.50
16956;BMP180;8594;52.052;8.354;2022-12-10T05:41:19;99824.00;;;4.60
16956;BMP180;8594;52.052;8.354;2022-12-10T05:43:48;99823.00;;;3.90
16956;BMP180;8594;52.052;8.354;2022-12-10T05:46:19;99821.00;;;3.50
16956;BMP180;8594;52.052;8.354;2022-12-10T05:48:47;99826.00;;;3.80
16956;BMP180;8594;52.052;8.354;2022-12-10T05:51:16;99827.00;;;4.10
16956;BMP180;8594;52.052;8.354;2022-12-10T05:53:44;99835.00;;;5.00
16956;BMP180;8594;52.052;8.354;2022-12-10T05:56:14;99837.00;;;5.30
16956;BMP180;8594;52.052;8.354;2022-12-10T05:58:44;99843.00;;;5.20
16956;BMP180;8594;52.052;8.354;2022-12-10T06:01:14;99835.00;;;4.90
16956;BMP180;8594;52.052;8.354;2022-12-10T06:03:42;99833.00;;;5.00
16956;BMP180;8594;52.052;8.354;2022-12-10T06:06:10;99843.00;;;5.00
16956;BMP180;8594;52.052;8.354;2022-12-10T06:08:38;99831.00;;;4.50
16956;BMP180;8594;52.052;8.354;2022-12-10T06:11:08;99836.00;;;4.90
16956;BMP180;8594;52.052;8.354;2022-12-10T06:13:37;99841.00;;;4.90
16956;BMP180;8594;52.052;8.354;2022-12-10T06:16:05;99842.00;;;4.70
16956;BMP180;8594;52.052;8.354;2022-12-10T06:18:34;99835.00;;;4.90
16956;BMP180;8594;52.052;8.354;2022-12-10T06:21:03;99838.00;;;5.10
16956;BMP180;8594;52.052;8.354;2022-12-10T06:23:30;99835.00;;;4.70
16956;BMP180;8594;52.052;8.354;2022-12-10T06:25:57;99844.00;;;4.60
16956;BMP180;8594;52.052;8.354;2022-12-10T06:28:24;99836.00;;;4.40
16956;BMP180;8594;52.052;8.354;2022-12-10T06:30:51;99847.00;;;4.70
16956;BMP180;8594;52.052;8.354;2022-12-10T06:33:18;99842.00;;;4.70
16956;BMP180;8594;52.052;8.354;2022-12-10T06:35:46;99849.00;;;4.60
16956;BMP180;8594;52.052;8.354;2022-12-10T06:38:13;99850.00;;;4.60
16956;BMP180;8594;52.052;8.354;2022-12-10T06:40:40;99842.00;;;4.50
16956;BMP180;8594;52.052;8.354;2022-12-10T06:43:07;99846.00;;;4.50
16956;BMP180;8594;52.052;8.354;2022-12-10T06:45:38;99855.00;;;4.60
16956;BMP180;8594;52.052;8.354;2022-12-10T06:48:06;99855.00;;;4.50
16956;BMP180;8594;52.052;8.354;2022-12-10T06:50:33;99861.00;;;4.50
16956;BMP180;8594;52.052;8.354;2022-12-10T06:53:02;99852.00;;;4.50
16956;BMP180;8594;52.052;8.354;2022-12-10T06:55:29;99855.00;;;4.40
16956;BMP180;8594;52.052;8.354;2022-12-10T06:57:56;99859.00;;;5.00
16956;BMP180;8594;52.052;8.354;2022-12-10T07:00:23;99856.00;;;4.90
16956;BMP180;8594;52.052;8.354;2022-12-10T07:02:50;99857.00;;;4.70
16956;BMP180;8594;52.052;8.354;2022-12-10T07:05:17;99856.00;;;4.50
16956;BMP180;8594;52.052;8.354;2022-12-10T07:07:44;99873.00;;;4.40
16956;BMP180;8594;52.052;8.354;2022-12-10T07:10:13;99867.00;;;4.80
16956;BMP180;8594;52.052;8.354;2022-12-10T07:12:40;99868.00;;;4.70
16956;BMP180;8594;52.052;8.354;2022-12-10T07:15:08;99871.00;;;4.30
16956;BMP180;8594;52.052;8.354;2022-12-10T07:17:36;99877.00;;;4.70
16956;BMP180;8594;52.052;8.354;2022-12-10T07:20:03;99877.00;;;4.80
16956;BMP180;8594;52.052;8.354;2022-12-10T07:22:30;99883.00;;;4.70
16956;BMP180;8594;52.052;8.354;2022-12-10T07:24:57;99886.00;;;4.30
16956;BMP180;8594;52.052;8.354;2022-12-10T07:27:26;99887.00;;;4.30
16956;BMP180;8594;52.052;8.354;2022-12-10T07:29:52;99883.00;;;4.20
16956;BMP180;8594;52.052;8.354;2022-12-10T07:32:19;99893.00;;;4.90
16956;BMP180;8594;52.052;8.354;2022-12-10T07:34:46;99896.00;;;4.80
16956;BMP180;8594;52.052;8.354;2022-12-10T07:37:13;99902.00;;;4.50
16956;BMP180;8594;52.052;8.354;2022-12-10T07:39:40;99894.00;;;4.70
16956;BMP180;8594;52.052;8.354;2022-12-10T07:42:08;99902.00;;;4.90
16956;BMP180;8594;52.052;8.354;2022-12-10T07:44:36;99900.00;;;5.00
16956;BMP180;8594;52.052;8.354;2022-12-10T07:47:04;99900.00;;;4.20
16956;BMP180;8594;52.052;8.354;2022-12-10T07:49:31;99897.00;;;4.40
16956;BMP180;8594;52.052;8.354;2022-12-10T07:51:58;99912.00;;;4.40
16956;BMP180;8594;52.052;8.354;2022-12-10T07:54:25;99915.00;;;4.80
16956;BMP180;8594;52.052;8.354;2022-12-10T07:56:52;99913.00;;;4.40
16956;BMP180;8594;52.052;8.354;2022-12-10T07:59:19;99908.00;;;4.50
16956;BMP180;8594;52.052;8.354;2022-12-10T08:01:47;99916.00;;;4.30
16956;BMP180;8594;52.052;8.354;2022-12-10T08:04:15;99901.00;;;4.20
16956;BMP180;8594;52.052;8.354;2022-12-10T08:06:42;99911.00;;;4.10
16956;BMP180;8594;52.052;8.354;2022-12-10T08:09:10;99915.00;;;4.00
16956;BMP180;8594;52.052;8.354;2022-12-10T08:11:37;99919.00;;;4.20
16956;BMP180;8594;52.052;8.354;2022-12-10T08:14:05;99916.00;;;4.10
16956;BMP180;8594;52.052;8.354;2022-12-10T08:16:32;99912.00;;;4.70
16956;BMP180;8594;52.052;8.354;2022-12-10T08:19:01;99931.00;;;4.90
16956;BMP180;8594;52.052;8.354;2022-12-10T08:21:31;99923.00;;;4.90
16956;BMP180;8594;52.052;8.354;2022-12-10T08:23:59;99933.00;;;4.80
16956;BMP180;8594;52.052;8.354;2022-12-10T08:26:29;99930.00;;;4.60
16956;BMP180;8594;52.052;8.354;2022-12-10T08:28:58;99936.00;;;4.40
16956;BMP180;8594;52.052;8.354;2022-12-10T08:31:26;99930.00;;;4.10
16956;BMP180;8594;52.052;8.354;2022-12-10T08:33:53;99943.00;;;4.40
16956;BMP180;8594;52.052;8.354;2022-12-10T08:36:22;99946.00;;;4.40
16956;BMP180;8594;52.052;8.354;2022-12-10T08:38:50;99941.00;;;4.10
16956;BMP180;8594;52.052;8.354;2022-12-10T08:41:20;99949.00;;;4.60
16956;BMP180;8594;52.052;8.354;2022-12-10T08:43:48;99954.00;;;4.90
16956;BMP180;8594;52.052;8.354;2022-12-10T08:46:17;99949.00;;;4.70
16956;BMP180;8594;52.052;8.354;2022-12-10T08:48:44;99953.00;;;4.80
16956;BMP180;8594;52.052;8.354;2022-12-10T08:51:15;99954.00;;;4.70
16956;BMP180;8594;52.052;8.354;2022-12-10T08:53:44;99957.00;;;4.60
16956;BMP180;8594;52.052;8.354;2022-12-10T08:56:11;99951.00;;;4.40
16956;BMP180;8594;52.052;8.354;2022-12-10T08:58:39;99959.00;;;4.30
16956;BMP180;8594;52.052;8.354;2022-12-10T09:01:08;99962.00;;;4.10
16956;BMP180;8594;52.052;8.354;2022-12-10T09:03:36;99962.00;;;4.40
16956;BMP180;8594;52.052;8.354;2022-12-10T09:06:04;99959.00;;;4.40
16956;BMP180;8594;52.052;8.354;2022-12-10T09:08:32;99961.00;;;4.30
16956;BMP180;8594;52.052;8.354;2022-12-10T09:11:06;99964.00;;;4.20
16956;BMP180;8594;52.052;8.354;2022-12-10T09:13:33;99960.00;;;4.30
16956;BMP180;8594;52.052;8.354;2022-12-10T09:16:00;99970.00;;;4.50
16956;BMP180;8594;52.052;8.354;2022-12-10T09:18:27;99970.00;;;4.30
16956;BMP180;8594;52.052;8.354;2022-12-10T09:20:54;99973.00;;;4.40
16956;BMP180;8594;52.052;8.354;2022-12-10T09:23:21;99974.00;;;4.50
16956;BMP180;8594;52.052;8.354;2022-12-10T09:25:48;99969.00;;;4.70
16956;BMP180;8594;52.052;8.354;2022-12-10T09:28:17;99976.00;;;4.40
16956;BMP180;8594;52.052;8.354;2022-12-10T09:30:44;99972.00;;;4.30
16956;BMP180;8594;52.052;8.354;2022-12-10T09:33:11;99986.00;;;4.30
16956;BMP180;8594;52.052;8.354;2022-12-10T09:35:40;99992.00;;;4.20
16956;BMP180;8594;52.052;8.354;2022-12-10T09:38:08;99988.00;;;4.30
16956;BMP180;8594;52.052;8.354;2022-12-10T09:40:42;99980.00;;;4.20
16956;BMP180;8594;52.052;8.354;2022-12-10T09:43:19;99982.00;;;4.70
16956;BMP180;8594;52.052;8.354;2022-12-10T09:46:04;99982.00;;;4.50
16956;BMP180;8594;52.052;8.354;2022-12-10T09:48:44;99985.00;;;4.60
16956;BMP180;8594;52.052;8.354;2022-12-10T09:51:21;99993.00;;;4.90
16956;BMP180;8594;52.052;8.354;2022-12-10T09:53:51;99985.00;;;4.60
16956;BMP180;8594;52.052;8.354;2022-12-10T09:56:31;99987.00;;;4.90
16956;BMP180;8594;52.052;8.354;2022-12-10T09:59:15;99980.00;;;4.40
16956;BMP180;8594;52.052;8.354;2022-12-10T10:01:44;99983.00;;;4.20
16956;BMP180;8594;52.052;8.354;2022-12-10T10:04:12;99981.00;;;4.50
16956;BMP180;8594;52.052;8.354;2022-12-10T10:06:41;99983.00;;;4.60
16956;BMP180;8594;52.052;8.354;2022-12-10T10:09:13;99979.00;;;4.80
16956;BMP180;8594;52.052;8.354;2022-12-10T10:11:42;99984.00;;;4.90
16956;BMP180;8594;52.052;8.354;2022-12-10T10:14:18;99979.00;;;4.70
16956;BMP180;8594;52.052;8.354;2022-12-10T10:16:52;99983.00;;;4.60
16956;BMP180;8594;52.052;8.354;2022-12-10T10:19:27;99990.00;;;4.80
16956;BMP180;8594;52.052;8.354;2022-12-10T10:21:54;99983.00;;;4.80
16956;BMP180;8594;52.052;8.354;2022-12-10T10:24:26;99987.00;;;4.70
16956;BMP180;8594;52.052;8.354;2022-12-10T10:26:58;99987.00;;;4.80
16956;BMP180;8594;52.052;8.354;2022-12-10T10:29:29;99985.00;;;5.10
16956;BMP180;8594;52.052;8.354;2022-12-10T10:32:15;99983.00;;;4.80
16956;BMP180;8594;52.052;8.354;2022-12-10T10:34:44;99979.00;;;4.40
16956;BMP180;8594;52.052;8.354;2022-12-10T10:37:21;99979.00;;;4.70
16956;BMP180;8594;52.052;8.354;2022-12-10T10:39:50;99975.00;;;4.70
16956;BMP180;8594;52.052;8.354;2022-12-10T10:42:35;99979.00;;;5.10
16956;BMP180;8594;52.052;8.354;2022-12-10T10:48:05;99966.00;;;5.10
16956;BMP180;8594;52.052;8.354;2022-12-10T10:50:39;99970.00;;;5.10
16956;BMP180;8594;52.052;8.354;2022-12-10T10:53:31;99969.00;;;5.20
16956;BMP180;8594;52.052;8.354;2022-12-10T10:56:07;99971.00;;;5.50
16956;BMP180;8594;52.052;8.354;2022-12-10T10:58:53;99976.00;;;4.90
16956;BMP180;8594;52.052;8.354;2022-12-10T11:01:25;99980.00;;;5.10
16956;BMP180;8594;52.052;8.354;2022-12-10T11:03:58;99981.00;;;5.50
16956;BMP180;8594;52.052;8.354;2022-12-10T11:06:26;99982.00;;;5.50
16956;BMP180;8594;52.052;8.354;2022-12-10T11:08:57;99968.00;;;5.50
16956;BMP180;8594;52.052;8.354;2022-12-10T11:11:33;99968.00;;;5.60
16956;BMP180;8594;52.052;8.354;2022-12-10T11:14:15;99977.00;;;5.50
16956;BMP180;8594;52.052;8.354;2022-12-10T11:16:49;99974.00;;;6.00
16956;BMP180;8594;52.052;8.354;2022-12-10T11:19:21;99973.00;;;6.10
16956;BMP180;8594;52.052;8.354;2022-12-10T11:21:49;99968.00;;;5.70
16956;BMP180;8594;52.052;8.354;2022-12-10T11:24:19;99973.00;;;5.80
16956;BMP180;8594;52.052;8.354;2022-12-10T11:27:04;99973.00;;;6.00
16956;BMP180;8594;52.052;8.354;2022-12-10T11:29:49;99972.00;;;6.00
16956;BMP180;8594;52.052;8.354;2022-12-10T11:32:42;99984.00;;;5.70
16956;BMP180;8594;52.052;8.354;2022-12-10T11:35:19;99981.00;;;5.90
16956;BMP180;8594;52.052;8.354;2022-12-10T11:37:55;99973.00;;;5.80
16956;BMP180;8594;52.052;8.354;2022-12-10T11:40:43;99977.00;;;5.60
16956;BMP180;8594;52.052;8.354;2022-12-10T11:43:36;99980.00;;;5.90
16956;BMP180;8594;52.052;8.354;2022-12-10T11:46:24;99975.00;;;6.00
16956;BMP180;8594;52.052;8.354;2022-12-10T11:49:16;99985.00;;;5.90
16956;BMP180;8594;52.052;8.354;2022-12-10T11:51:53;99985.00;;;5.70
16956;BMP180;8594;52.052;8.354;2022-12-10T11:54:55;99986.00;;;5.90
16956;BMP180;8594;52.052;8.354;2022-12-10T11:57:36;99978.00;;;5.60
16956;BMP180;8594;52.052;8.354;2022-12-10T12:00:19;99984.00;;;5.60
16956;BMP180;8594;52.052;8.354;2022-12-10T12:03:06;99982.00;;;5.90
16956;BMP180;8594;52.052;8.354;2022-12-10T12:06:05;99977.00;;;6.40
16956;BMP180;8594;52.052;8.354;2022-12-10T12:08:47;99977.00;;;6.40
16956;BMP180;8594;52.052;8.354;2022-12-10T12:11:32;99979.00;;;6.30
16956;BMP180;8594;52.052;8.354;2022-12-10T12:14:13;99987.00;;;6.10
16956;BMP180;8594;52.052;8.354;2022-12-10T12:16:49;99983.00;;;6.30
16956;BMP180;8594;52.052;8.354;2022-12-10T12:19:34;99978.00;;;6.00
16956;BMP180;8594;52.052;8.354;2022-12-10T12:22:14;99975.00;;;6.80
16956;BMP180;8594;52.052;8.354;2022-12-10T12:24:46;99978.00;;;5.70
16956;BMP180;8594;52.052;8.354;2022-12-10T12:27:25;99985.00;;;6.10
16956;BMP180;8594;52.052;8.354;2022-12-10T12:30:04;99984.00;;;5.80
16956;BMP180;8594;52.052;8.354;2022-12-10T12:32:43;99982.00;;;5.40
16956;BMP180;8594;52.052;8.354;2022-12-10T12:35:17;99978.00;;;5.40
16956;BMP180;8594;52.052;8.354;2022-12-10T12:37:55;99988.00;;;5.60
16956;BMP180;8594;52.052;8.354;2022-12-10T12:40:29;99990.00;;;5.60
16956;BMP180;8594;52.052;8.354;2022-12-10T12:43:01;99984.00;;;5.60
16956;BMP180;8594;52.052;8.354;2022-12-10T12:45:38;99985.00;;;5.90
16956;BMP180;8594;52.052;8.354;2022-12-10T12:48:18;99987.00;;;5.80
16956;BMP180;8594;52.052;8.354;2022-12-10T12:50:54;99992.00;;;5.90
16956;BMP180;8594;52.052;8.354;2022-12-10T12:53:24;99988.00;;;5.80
16956;BMP180;8594;52.052;8.354;2022-12-10T12:56:02;99996.00;;;5.70
16956;BMP180;8594;52.052;8.354;2022-12-10T12:58:40;99996.00;;;6.10
16956;BMP180;8594;52.052;8.354;2022-12-10T13:01:23;99996.00;;;5.50
16956;BMP180;8594;52.052;8.354;2022-12-10T13:03:54;100001.00;;;5.40
16956;BMP180;8594;52.052;8.354;2022-12-10T13:06:26;100003.00;;;5.60
16956;BMP180;8594;52.052;8.354;2022-12-10T13:09:23;99985.00;;;5.40
16956;BMP180;8594;52.052;8.354;2022-12-10T13:12:27;99996.00;;;5.40
16956;BMP180;8594;52.052;8.354;2022-12-10T13:15:14;99993.00;;;5.30
16956;BMP180;8594;52.052;8.354;2022-12-10T13:18:04;99993.00;;;5.40
16956;BMP180;8594;52.052;8.354;2022-12-10T13:20:34;99996.00;;;4.90
16956;BMP180;8594;52.052;8.354;2022-12-10T13:23:04;99990.00;;;5.10
16956;BMP180;8594;52.052;8.354;2022-12-10T13:25:55;99998.00;;;5.30
16956;BMP180;8594;52.052;8.354;2022-12-10T13:28:31;99995.00;;;5.20
16956;BMP180;8594;52.052;8.354;2022-12-10T13:31:22;99999.00;;;5.30
16956;BMP180;8594;52.052;8.354;2022-12-10T13:34:20;100002.00;;;5.30
16956;BMP180;8594;52.052;8.354;2022-12-10T13:40:15;100001.00;;;5.10
16956;BMP180;8594;52.052;8.354;2022-12-10T13:42:59;100003.00;;;5.00
16956;BMP180;8594;52.052;8.354;2022-12-10T13:46:24;99999.00;;;5.10
16956;BMP180;8594;52.052;8.354;2022-12-10T13:48:54;100005.00;;;5.00
16956;BMP180;8594;52.052;8.354;2022-12-10T13:51:51;100010.00;;;5.30
16956;BMP180;8594;52.052;8.354;2022-12-10T13:54:47;100011.00;;;5.20
16956;BMP180;8594;52.052;8.354;2022-12-10T13:57:46;100013.00;;;5.00
16956;BMP180;8594;52.052;8.354;2022-12-10T14:00:20;100019.00;;;4.90
16956;BMP180;8594;52.052;8.354;2022-12-10T14:03:39;100024.00;;;4.90
16956;BMP180;8594;52.052;8.354;2022-12-10T14:06:16;100024.00;;;4.90
16956;BMP180;8594;52.052;8.354;2022-12-10T14:09:01;100022.00;;;4.90
16956;BMP180;8594;52.052;8.354;2022-12-10T14:11:32;100025.00;;;5.10
16956;BMP180;8594;52.052;8.354;2022-12-10T14:14:02;100027.00;;;4.90
16956;BMP180;8594;52.052;8.354;2022-12-10T14:16:34;100029.00;;;5.10
16956;BMP180;8594;52.052;8.354;2022-12-10T14:19:06;100034.00;;;5.20
16956;BMP180;8594;52.052;8.354;2022-12-10T14:21:35;100032.00;;;5.30
16956;BMP180;8594;52.052;8.354;2022-12-10T14:24:05;100021.00;;;5.40
16956;BMP180;8594;52.052;8.354;2022-12-10T14:26:36;100030.00;;;5.30
16956;BMP180;8594;52.052;8.354;2022-12-10T14:29:18;100032.00;;;5.20
16956;BMP180;8594;52.052;8.354;2022-12-10T14:31:49;100034.00;;;5.20
16956;BMP180;8594;52.052;8.354;2022-12-10T14:34:21;100032.00;;;5.30
16956;BMP180;8594;52.052;8.354;2022-12-10T14:36:52;100023.00;;;5.40
16956;BMP180;8594;52.052;8.354;2022-12-10T14:39:22;100032.00;;;4.90
16956;BMP180;8594;52.052;8.354;2022-12-10T14:41:55;100041.00;;;4.90
16956;BMP180;8594;52.052;8.354;2022-12-10T14:44:24;100038.00;;;5.20
16956;BMP180;8594;52.052;8.354;2022-12-10T14:47:04;100039.00;;;5.20
16956;BMP180;8594;52.052;8.354;2022-12-10T14:49:32;100042.00;;;5.00
16956;BMP180;8594;52.052;8.354;2022-12-10T14:52:14;100040.00;;;5.00
16956;BMP180;8594;52.052;8.354;2022-12-10T14:54:43;100038.00;;;5.00
16956;BMP180;8594;52.052;8.354;2022-12-10T14:57:17;100039.00;;;5.10
16956;BMP180;8594;52.052;8.354;2022-12-10T14:59:59;100046.00;;;5.00
16956;BMP180;8594;52.052;8.354;2022-12-10T15:02:31;100042.00;;;5.00
16956;BMP180;8594;52.052;8.354;2022-12-10T15:05:00;100044.00;;;5.00
16956;BMP180;8594;52.052;8.354;2022-12-10T15:07:33;100048.00;;;5.20
16956;BMP180;8594;52.052;8.354;2022-12-10T15:10:08;100045.00;;;5.40
16956;BMP180;8594;52.052;8.354;2022-12-10T15:12:45;100045.00;;;5.00